Time;durP1;ratioP1;P1;durP2;ratioP2;P2;SDS_P1;SDS_P2;PMS_P1;PMS_P2;Temp;Humidity;BMP_temperature;BMP_pressure;BME280_temperature;BME280_humidity;BME280_pressure;Samples;Min_cycle;Max_cycle;Signal;HPM_P1;HPM_P2
2021/09/05 00:02:12;;;;;;;17.38;9.05;;;16.40;96.80;;;;;;5030780;28;20424;-68
2021/09/05 00:04:37;;;;;;;15.10;8.73;;;16.40;96.80;;;;;;5029185;28;20033;-67
2021/09/05 00:07:03;;;;;;;17.30;9.10;;;16.30;96.90;;;;;;5030000;28;20018;-67
2021/09/05 00:09:29;;;;;;;13.70;9.55;;;16.30;97.00;;;;;;5026564;28;20393;-67
2021/09/05 00:11:54;;;;;;;16.92;10.15;;;16.30;97.10;;;;;;5038924;28;20402;-67
2021/09/05 00:14:20;;;;;;;18.02;10.82;;;16.30;97.10;;;;;;5038782;28;20037;-67
2021/09/05 00:16:45;;;;;;;17.00;10.15;;;16.20;97.10;;;;;;5029183;28;20033;-67
2021/09/05 00:19:11;;;;;;;24.05;11.23;;;16.30;97.20;;;;;;5015660;28;20091;-67
2021/09/05 00:21:36;;;;;;;15.55;9.57;;;16.20;97.30;;;;;;5034079;28;20045;-67
2021/09/05 00:24:02;;;;;;;17.27;10.10;;;16.20;97.40;;;;;;5021195;28;20045;-67
2021/09/05 00:26:31;;;;;;;17.13;9.77;;;16.10;97.50;;;;;;5031454;28;20103;-67
2021/09/05 00:28:56;;;;;;;16.48;10.50;;;16.10;97.60;;;;;;5014312;28;20560;-67
2021/09/05 00:31:22;;;;;;;16.13;10.52;;;16.10;97.70;;;;;;5030297;28;20029;-67
2021/09/05 00:33:47;;;;;;;15.55;9.05;;;16.10;97.80;;;;;;5040991;28;20033;-67
2021/09/05 00:36:13;;;;;;;19.17;10.50;;;16.10;97.90;;;;;;5029762;28;20443;-67
2021/09/05 00:38:38;;;;;;;16.23;9.57;;;16.10;98.00;;;;;;5021775;28;20450;-67
2021/09/05 00:41:04;;;;;;;18.08;10.95;;;16.10;98.00;;;;;;5024923;28;20036;-67
2021/09/05 00:43:29;;;;;;;18.27;10.68;;;16.00;98.10;;;;;;5026352;28;20042;-67
2021/09/05 00:45:55;;;;;;;21.38;10.93;;;16.00;98.30;;;;;;5039588;28;20029;-68
2021/09/05 00:48:20;;;;;;;16.38;9.45;;;16.00;98.30;;;;;;5030476;28;20083;-67
2021/09/05 00:50:46;;;;;;;18.95;11.13;;;16.00;98.40;;;;;;5031703;28;20037;-67
2021/09/05 00:53:11;;;;;;;16.35;11.48;;;16.00;98.50;;;;;;5030316;28;20502;-67
2021/09/05 00:55:38;;;;;;;21.50;10.85;;;15.90;98.60;;;;;;5024908;28;20049;-67
2021/09/05 00:58:08;;;;;;;19.00;11.38;;;15.90;98.60;;;;;;5034098;28;20037;-67
2021/09/05 01:00:36;;;;;;;18.60;10.60;;;15.90;98.70;;;;;;5032629;28;20075;-67
2021/09/05 01:03:03;;;;;;;19.65;11.05;;;15.90;98.70;;;;;;5033907;28;20042;-67
2021/09/05 01:05:30;;;;;;;16.88;11.30;;;15.90;98.70;;;;;;5039942;28;20029;-68
2021/09/05 01:07:55;;;;;;;15.52;10.38;;;15.90;98.80;;;;;;5034176;28;20034;-67
2021/09/05 01:10:21;;;;;;;17.67;11.13;;;15.90;99.10;;;;;;5038314;28;20017;-68
2021/09/05 01:12:46;;;;;;;19.65;11.02;;;15.90;99.20;;;;;;5027799;28;20390;-68
2021/09/05 01:15:12;;;;;;;19.95;12.35;;;15.90;99.10;;;;;;5034369;28;20025;-67
2021/09/05 01:17:38;;;;;;;18.85;11.60;;;15.90;99.10;;;;;;5025297;28;20116;-68
2021/09/05 01:20:08;;;;;;;20.77;11.85;;;15.90;99.20;;;;;;5031869;28;20025;-67
2021/09/05 01:22:35;;;;;;;20.50;12.30;;;15.80;99.20;;;;;;5032494;28;20485;-67
2021/09/05 01:25:00;;;;;;;18.88;11.40;;;15.80;99.30;;;;;;5037850;28;20454;-67
2021/09/05 01:27:26;;;;;;;19.17;12.32;;;15.80;99.40;;;;;;5036723;28;20069;-68
2021/09/05 01:29:52;;;;;;;19.95;11.52;;;15.80;99.40;;;;;;5022723;28;20052;-68
2021/09/05 01:32:18;;;;;;;18.55;10.73;;;15.70;99.40;;;;;;5031860;28;20025;-68
2021/09/05 01:34:44;;;;;;;20.60;13.25;;;15.80;99.50;;;;;;5024919;28;20038;-68
2021/09/05 01:37:09;;;;;;;17.88;11.00;;;15.70;99.50;;;;;;5036384;28;20508;-68
2021/09/05 01:39:35;;;;;;;20.15;12.15;;;15.60;99.70;;;;;;5032025;28;20037;-68
2021/09/05 01:42:00;;;;;;;19.80;11.48;;;15.60;99.80;;;;;;5036818;28;20048;-68
2021/09/05 01:44:26;;;;;;;17.55;11.45;;;15.60;99.80;;;;;;5032851;28;20120;-68
2021/09/05 01:46:52;;;;;;;21.70;11.98;;;15.60;99.80;;;;;;5031355;28;20029;-68
2021/09/05 01:49:17;;;;;;;18.35;11.82;;;15.60;99.90;;;;;;5033097;28;20025;-68
2021/09/05 01:51:43;;;;;;;21.08;11.35;;;15.60;99.90;;;;;;5036465;28;20082;-68
2021/09/05 01:54:09;;;;;;;18.85;11.75;;;15.60;99.90;;;;;;5031897;28;20065;-68
2021/09/05 01:56:35;;;;;;;18.55;11.35;;;15.60;99.90;;;;;;5031896;28;20072;-68
2021/09/05 01:59:01;;;;;;;19.85;11.50;;;15.60;99.90;;;;;;5032395;28;20056;-68
2021/09/05 02:01:28;;;;;;;18.23;11.65;;;15.50;99.90;;;;;;5031426;28;20036;-68
2021/09/05 02:03:54;;;;;;;21.52;12.43;;;15.50;99.90;;;;;;5030441;28;20136;-68
2021/09/05 02:06:20;;;;;;;22.23;12.27;;;15.50;99.90;;;;;;5034847;28;20164;-68
2021/09/05 02:08:46;;;;;;;18.02;11.30;;;15.50;99.90;;;;;;5042029;28;20041;-68
2021/09/05 02:11:13;;;;;;;20.58;12.43;;;15.50;99.90;;;;;;5031100;28;20104;-68
2021/09/05 02:13:39;;;;;;;22.15;11.70;;;15.50;99.90;;;;;;5032035;28;20174;-67
2021/09/05 02:16:05;;;;;;;24.08;13.73;;;15.50;99.90;;;;;;5029024;28;20116;-67
2021/09/05 02:18:30;;;;;;;22.30;14.13;;;15.50;99.90;;;;;;5044100;28;20033;-68
2021/09/05 02:20:56;;;;;;;24.63;13.57;;;15.50;99.90;;;;;;5030524;28;20172;-68
2021/09/05 02:23:21;;;;;;;23.40;12.48;;;15.50;99.90;;;;;;5033620;28;20490;-68
2021/09/05 02:25:47;;;;;;;21.20;13.65;;;15.40;99.90;;;;;;5030367;28;20432;-68
2021/09/05 02:28:13;;;;;;;21.52;12.20;;;15.50;99.90;;;;;;5046338;28;20505;-68
2021/09/05 02:30:38;;;;;;;18.60;11.57;;;15.40;99.90;;;;;;5030176;28;20041;-68
2021/09/05 02:33:04;;;;;;;24.13;13.52;;;15.40;99.90;;;;;;5033112;28;20021;-68
2021/09/05 02:35:30;;;;;;;26.27;14.18;;;15.40;99.90;;;;;;5031722;28;20029;-68
2021/09/05 02:37:56;;;;;;;21.88;14.40;;;15.40;99.90;;;;;;5023361;28;20183;-68
2021/09/05 02:40:21;;;;;;;22.85;13.85;;;15.30;99.90;;;;;;5032107;28;20041;-68
2021/09/05 02:42:47;;;;;;;22.05;13.98;;;15.30;99.90;;;;;;5030563;28;20060;-68
2021/09/05 02:45:12;;;;;;;25.52;12.95;;;15.30;99.90;;;;;;5027915;28;20014;-68
2021/09/05 02:47:38;;;;;;;22.25;14.02;;;15.30;99.90;;;;;;5025788;28;20033;-68
2021/09/05 02:50:05;;;;;;;23.00;14.00;;;15.30;99.90;;;;;;5031136;28;20064;-67
2021/09/05 02:52:30;;;;;;;25.10;14.20;;;15.30;99.90;;;;;;5044914;28;20041;-67
2021/09/05 02:54:56;;;;;;;21.75;13.85;;;15.30;99.90;;;;;;5031415;28;20057;-67
2021/09/05 02:57:22;;;;;;;25.30;14.27;;;15.30;99.90;;;;;;5035643;28;20022;-67
2021/09/05 02:59:47;;;;;;;24.02;14.18;;;15.30;99.90;;;;;;5031285;28;20470;-67
2021/09/05 03:02:12;;;;;;;22.15;12.88;;;15.30;99.90;;;;;;5030704;28;20112;-67
2021/09/05 03:04:38;;;;;;;24.35;12.98;;;15.30;99.90;;;;;;5031368;28;20036;-68
2021/09/05 03:07:04;;;;;;;20.00;13.30;;;15.30;99.90;;;;;;5026764;28;20502;-68
2021/09/05 03:09:29;;;;;;;22.73;12.82;;;15.30;99.90;;;;;;5019130;28;20436;-67
2021/09/05 03:11:55;;;;;;;22.67;13.38;;;15.30;99.90;;;;;;5032228;28;20057;-68
2021/09/05 03:14:20;;;;;;;22.40;12.82;;;15.30;99.90;;;;;;5030676;28;20034;-68
2021/09/05 03:16:46;;;;;;;22.60;14.32;;;15.20;99.90;;;;;;5036545;28;20029;-68
2021/09/05 03:19:12;;;;;;;24.52;13.55;;;15.20;99.90;;;;;;5039114;28;20048;-68
2021/09/05 03:21:38;;;;;;;25.55;14.27;;;15.20;99.90;;;;;;5032737;28;20025;-68
2021/09/05 03:24:05;;;;;;;23.52;15.02;;;15.20;99.90;;;;;;5031353;28;20091;-68
2021/09/05 03:26:32;;;;;;;23.13;13.63;;;15.20;99.90;;;;;;5032974;28;20037;-68
2021/09/05 03:28:57;;;;;;;27.02;14.35;;;15.20;99.90;;;;;;5015848;28;20513;-68
2021/09/05 03:31:22;;;;;;;25.30;13.65;;;15.20;99.90;;;;;;5030104;28;20064;-68
2021/09/05 03:33:48;;;;;;;26.75;14.15;;;15.10;99.90;;;;;;5026555;28;20034;-67
2021/09/05 03:36:14;;;;;;;25.20;15.07;;;15.10;99.90;;;;;;5025178;28;20417;-68
2021/09/05 03:38:39;;;;;;;20.23;13.57;;;15.10;99.90;;;;;;5032343;28;20389;-68
2021/09/05 03:41:04;;;;;;;22.08;14.38;;;15.10;99.90;;;;;;5029583;28;20072;-68
2021/09/05 03:43:30;;;;;;;19.60;13.23;;;15.10;99.90;;;;;;5030609;28;20536;-68
2021/09/05 03:45:55;;;;;;;22.30;14.30;;;15.10;99.90;;;;;;5021492;28;20040;-68
2021/09/05 03:48:21;;;;;;;21.60;13.52;;;15.10;99.90;;;;;;5037774;28;20037;-68
2021/09/05 03:50:46;;;;;;;22.42;13.27;;;15.00;99.90;;;;;;5031582;28;20140;-68
2021/09/05 03:53:12;;;;;;;20.10;13.38;;;15.00;99.90;;;;;;5010794;28;20030;-68
2021/09/05 03:55:38;;;;;;;25.63;13.63;;;15.00;99.90;;;;;;5018040;28;20057;-68
2021/09/05 03:58:04;;;;;;;20.55;13.35;;;15.00;99.90;;;;;;5030076;28;20385;-68
2021/09/05 04:00:29;;;;;;;22.45;13.27;;;15.00;99.90;;;;;;5030626;28;20052;-68
2021/09/05 04:02:55;;;;;;;21.30;12.60;;;14.90;99.90;;;;;;5028816;28;20589;-68
2021/09/05 04:05:20;;;;;;;18.48;12.45;;;15.00;99.90;;;;;;5030836;28;20112;-68
2021/09/05 04:10:29;;;;;;;22.30;13.50;;;14.90;99.90;;;;;;5024203;28;20041;-68
2021/09/05 04:12:55;;;;;;;21.17;13.32;;;14.90;99.90;;;;;;5027897;28;20076;-68
2021/09/05 04:15:21;;;;;;;23.67;13.52;;;14.90;99.90;;;;;;5030212;28;20645;-68
2021/09/05 04:17:46;;;;;;;19.45;12.50;;;14.80;99.90;;;;;;5029250;28;20029;-68
2021/09/05 04:20:12;;;;;;;20.38;13.10;;;14.80;99.90;;;;;;5031878;28;20401;-69
2021/09/05 04:22:38;;;;;;;19.98;13.15;;;14.80;99.90;;;;;;5029753;28;20063;-68
2021/09/05 04:25:05;;;;;;;22.70;12.73;;;14.80;99.90;;;;;;5028067;28;20557;-68
2021/09/05 04:27:30;;;;;;;18.88;11.73;;;14.80;99.90;;;;;;5032476;28;20025;-68
2021/09/05 04:29:56;;;;;;;15.93;10.88;;;14.70;99.90;;;;;;5034294;28;20535;-68
2021/09/05 04:32:22;;;;;;;17.50;10.63;;;14.70;99.90;;;;;;5028396;28;20072;-68
2021/09/05 04:34:49;;;;;;;18.60;12.00;;;14.70;99.90;;;;;;5031503;28;20037;-69
2021/09/05 04:37:18;;;;;;;18.92;11.82;;;14.60;99.90;;;;;;5038549;28;20032;-68
2021/09/05 04:39:44;;;;;;;18.73;11.23;;;14.60;99.90;;;;;;5031528;28;20041;-68
2021/09/05 04:42:10;;;;;;;16.73;10.45;;;14.60;99.90;;;;;;5032757;28;20457;-68
2021/09/05 04:44:36;;;;;;;20.13;11.05;;;14.70;99.90;;;;;;5027501;28;20126;-68
2021/09/05 04:47:02;;;;;;;17.10;11.88;;;14.70;99.90;;;;;;5024894;28;20026;-69
2021/09/05 04:49:28;;;;;;;17.88;11.82;;;14.70;99.90;;;;;;5034072;28;20445;-68
2021/09/05 04:51:53;;;;;;;15.88;10.25;;;14.70;99.90;;;;;;5040898;28;20032;-69
2021/09/05 04:54:19;;;;;;;15.90;10.30;;;14.70;99.90;;;;;;5039307;28;20041;-68
2021/09/05 04:56:45;;;;;;;16.73;10.93;;;14.70;99.90;;;;;;5031814;28;20030;-68
2021/09/05 04:59:10;;;;;;;21.33;11.00;;;14.70;99.90;;;;;;5033797;28;20030;-68
2021/09/05 05:01:36;;;;;;;19.35;11.30;;;14.70;99.90;;;;;;5037105;28;20025;-69
2021/09/05 05:04:01;;;;;;;19.60;12.27;;;14.70;99.90;;;;;;5042522;28;20094;-68
2021/09/05 05:06:27;;;;;;;20.67;11.35;;;14.70;99.90;;;;;;5024878;28;20025;-68
2021/09/05 05:08:52;;;;;;;18.83;11.35;;;14.70;99.90;;;;;;5024925;28;20040;-68
2021/09/05 05:11:17;;;;;;;19.05;10.27;;;14.80;99.90;;;;;;5033293;28;20045;-68
2021/09/05 05:13:44;;;;;;;16.80;10.45;;;14.90;99.90;;;;;;5031386;28;20076;-68
2021/09/05 05:16:09;;;;;;;13.25;9.77;;;14.90;99.90;;;;;;5031480;28;20032;-68
2021/09/05 05:18:35;;;;;;;16.60;10.55;;;14.90;99.90;;;;;;5038975;28;20029;-68
2021/09/05 05:21:00;;;;;;;15.02;9.20;;;15.00;99.90;;;;;;5031339;28;20036;-69
2021/09/05 05:23:26;;;;;;;14.45;9.48;;;15.00;99.90;;;;;;5027929;28;20048;-68
2021/09/05 05:25:52;;;;;;;17.20;10.30;;;15.00;99.80;;;;;;5022446;28;20021;-68
2021/09/05 05:28:18;;;;;;;17.90;9.45;;;15.10;99.70;;;;;;5045868;28;20021;-68
2021/09/05 05:30:44;;;;;;;13.45;9.25;;;15.10;99.60;;;;;;5031618;28;20507;-68
2021/09/05 05:33:09;;;;;;;15.60;9.07;;;15.20;99.60;;;;;;5032185;28;20026;-68
2021/09/05 05:35:35;;;;;;;13.45;8.80;;;15.20;99.40;;;;;;5032427;28;20029;-68
2021/09/05 05:38:00;;;;;;;13.10;8.63;;;15.20;99.50;;;;;;5031352;28;20036;-69
2021/09/05 05:40:26;;;;;;;13.32;8.77;;;15.20;99.40;;;;;;5032514;28;20029;-68
2021/09/05 05:42:52;;;;;;;10.90;7.85;;;15.30;99.60;;;;;;5032191;28;20042;-68
2021/09/05 05:45:18;;;;;;;14.95;9.35;;;15.30;99.40;;;;;;5028272;28;20529;-68
2021/09/05 05:47:44;;;;;;;10.77;7.47;;;15.30;99.20;;;;;;5030858;28;20539;-68
2021/09/05 05:50:10;;;;;;;13.00;7.70;;;15.30;99.20;;;;;;5031490;28;20033;-68
2021/09/05 05:52:36;;;;;;;13.40;8.18;;;15.40;99.00;;;;;;5035668;28;20398;-68
2021/09/05 05:55:01;;;;;;;12.30;8.35;;;15.30;98.90;;;;;;5032554;28;20139;-69
2021/09/05 05:57:26;;;;;;;12.30;8.23;;;15.40;98.90;;;;;;5043691;28;20029;-68
2021/09/05 05:59:53;;;;;;;11.57;7.47;;;15.40;98.90;;;;;;5032674;28;20595;-69
2021/09/05 06:02:19;;;;;;;11.77;7.88;;;15.50;99.00;;;;;;5037348;28;20029;-68
2021/09/05 06:04:45;;;;;;;13.93;7.50;;;15.50;98.80;;;;;;5032641;28;20066;-68
2021/09/05 06:07:10;;;;;;;14.35;7.50;;;15.50;98.90;;;;;;5031432;28;20029;-68
2021/09/05 06:09:39;;;;;;;11.52;7.22;;;15.60;98.70;;;;;;5032606;28;20508;-68
2021/09/05 06:12:05;;;;;;;12.90;7.78;;;15.70;98.70;;;;;;5030840;28;20060;-68
2021/09/05 06:14:31;;;;;;;14.70;7.80;;;15.70;98.70;;;;;;5031409;28;20025;-68
2021/09/05 06:16:56;;;;;;;11.95;7.93;;;15.70;98.50;;;;;;5038462;28;20040;-68
2021/09/05 06:19:22;;;;;;;14.30;8.15;;;15.80;98.40;;;;;;5025901;28;20049;-68
2021/09/05 06:21:47;;;;;;;12.77;7.43;;;15.80;98.30;;;;;;5038144;28;20021;-68
2021/09/05 06:24:13;;;;;;;12.30;7.53;;;15.90;98.10;;;;;;5038690;28;20410;-69
2021/09/05 06:26:39;;;;;;;11.40;6.88;;;15.90;98.10;;;;;;5030032;28;20504;-68
2021/09/05 06:29:05;;;;;;;12.30;6.72;;;15.90;97.90;;;;;;5020605;28;20107;-68
2021/09/05 06:31:30;;;;;;;11.77;7.40;;;15.90;97.90;;;;;;5030426;28;20497;-67
2021/09/05 06:33:55;;;;;;;10.23;6.85;;;15.90;97.80;;;;;;5021888;28;20120;-67
2021/09/05 06:36:21;;;;;;;9.80;5.90;;;16.00;97.80;;;;;;5019495;28;20397;-67
2021/09/05 06:38:47;;;;;;;10.60;6.05;;;16.10;98.00;;;;;;5030673;28;20215;-66
2021/09/05 06:41:13;;;;;;;11.40;6.50;;;16.10;97.80;;;;;;5030411;28;20506;-66
2021/09/05 06:43:38;;;;;;;9.82;6.28;;;16.10;97.90;;;;;;5040007;28;20044;-70
2021/09/05 06:46:04;;;;;;;11.10;6.38;;;16.20;97.60;;;;;;5027406;28;20030;-68
2021/09/05 06:48:31;;;;;;;9.15;5.95;;;16.30;97.40;;;;;;5030006;28;20366;-69
2021/09/05 06:50:56;;;;;;;10.40;6.15;;;16.30;97.10;;;;;;5027225;28;20026;-69
2021/09/05 06:53:22;;;;;;;9.43;6.50;;;16.40;97.20;;;;;;5047977;28;20017;-69
2021/09/05 06:55:47;;;;;;;10.18;6.03;;;16.40;97.00;;;;;;5031212;28;20437;-69
2021/09/05 06:58:13;;;;;;;12.93;6.88;;;16.40;97.00;;;;;;5037981;28;20028;-69
2021/09/05 07:00:38;;;;;;;8.50;5.68;;;16.40;97.10;;;;;;5040855;28;20037;-70
2021/09/05 07:03:04;;;;;;;10.00;5.93;;;16.40;96.90;;;;;;5038154;28;20508;-69
2021/09/05 07:05:29;;;;;;;10.30;5.55;;;16.40;96.70;;;;;;5035135;28;20057;-69
2021/09/05 07:07:57;;;;;;;9.57;6.35;;;16.50;96.90;;;;;;5028548;28;20029;-69
2021/09/05 07:10:23;;;;;;;12.57;5.97;;;16.50;96.80;;;;;;5035010;28;20037;-69
2021/09/05 07:12:49;;;;;;;8.85;6.20;;;16.60;96.70;;;;;;5033314;28;20445;-68
2021/09/05 07:15:14;;;;;;;10.25;6.10;;;16.60;96.60;;;;;;5038733;28;20026;-68
2021/09/05 07:17:40;;;;;;;11.50;5.97;;;16.60;96.30;;;;;;5039832;28;20095;-68
2021/09/05 07:20:06;;;;;;;12.38;6.13;;;16.50;96.30;;;;;;5028829;28;20029;-68
2021/09/05 07:22:33;;;;;;;11.18;6.07;;;16.50;96.30;;;;;;5029246;28;20018;-68
2021/09/05 07:24:58;;;;;;;11.48;6.22;;;16.60;96.70;;;;;;5020551;28;20030;-68
2021/09/05 07:27:26;;;;;;;9.27;5.47;;;16.60;96.60;;;;;;5033611;28;20083;-68
2021/09/05 07:29:51;;;;;;;10.25;5.45;;;16.70;96.30;;;;;;5028623;28;20110;-68
2021/09/05 07:32:17;;;;;;;10.95;5.82;;;16.70;96.20;;;;;;5032787;28;20025;-68
2021/09/05 07:34:42;;;;;;;9.77;5.80;;;16.70;96.00;;;;;;5036672;28;20087;-68
2021/09/05 07:37:08;;;;;;;9.75;5.70;;;16.70;96.10;;;;;;5041568;28;20021;-68
2021/09/05 07:39:34;;;;;;;9.70;5.45;;;16.70;96.00;;;;;;5028753;28;20018;-69
2021/09/05 07:42:00;;;;;;;9.90;5.88;;;16.70;96.00;;;;;;5030982;28;20068;-67
2021/09/05 07:44:25;;;;;;;10.63;5.53;;;16.80;96.10;;;;;;5028935;28;20084;-68
2021/09/05 07:46:51;;;;;;;13.48;7.50;;;16.80;96.10;;;;;;5025553;28;20021;-68
2021/09/05 07:49:16;;;;;;;31.55;13.48;;;16.90;96.30;;;;;;5030664;28;20124;-68
2021/09/05 07:51:42;;;;;;;12.02;7.57;;;17.00;96.30;;;;;;5027737;28;20087;-68
2021/09/05 07:54:07;;;;;;;10.52;6.50;;;17.10;95.90;;;;;;5029454;28;20119;-68
2021/09/05 07:56:33;;;;;;;10.85;6.68;;;17.20;95.80;;;;;;5028858;28;20367;-69
2021/09/05 07:58:58;;;;;;;10.15;6.47;;;17.20;95.80;;;;;;5036317;28;20021;-68
2021/09/05 08:01:24;;;;;;;11.00;6.60;;;17.30;96.00;;;;;;5039132;28;20041;-68
2021/09/05 08:03:51;;;;;;;11.10;7.22;;;17.40;95.80;;;;;;5038113;28;20037;-68
2021/09/05 08:06:16;;;;;;;12.93;7.10;;;17.50;95.90;;;;;;5033310;28;20836;-68
2021/09/05 08:08:42;;;;;;;11.40;6.03;;;17.60;95.90;;;;;;5034671;28;20017;-68
2021/09/05 08:11:07;;;;;;;10.55;5.75;;;17.70;96.00;;;;;;5033011;28;20033;-68
2021/09/05 08:13:33;;;;;;;9.93;6.30;;;17.90;96.00;;;;;;5036914;28;20030;-68
2021/09/05 08:16:03;;;;;;;11.60;7.32;;;18.00;95.50;;;;;;5030724;28;20025;-68
2021/09/05 08:18:35;;;;;;;8.60;6.30;;;17.90;94.90;;;;;;5028775;28;20472;-67
2021/09/05 08:21:02;;;;;;;10.02;6.22;;;18.00;94.90;;;;;;5028526;28;20037;-69
2021/09/05 08:23:27;;;;;;;11.40;6.43;;;18.00;95.10;;;;;;5044048;28;20045;-67
2021/09/05 08:25:53;;;;;;;11.18;7.00;;;18.20;95.30;;;;;;5030306;28;20363;-67
2021/09/05 08:28:19;;;;;;;11.10;7.03;;;18.30;95.30;;;;;;5030725;28;20053;-67
2021/09/05 08:30:44;;;;;;;11.18;6.57;;;18.40;95.00;;;;;;5038798;28;20893;-67
2021/09/05 08:33:10;;;;;;;12.77;6.88;;;18.50;95.20;;;;;;5037747;28;20040;-69
2021/09/05 08:35:36;;;;;;;9.80;6.78;;;18.60;95.10;;;;;;5029372;28;20033;-68
2021/09/05 08:38:02;;;;;;;9.82;6.47;;;18.70;94.70;;;;;;5023393;28;20045;-68
2021/09/05 08:40:28;;;;;;;10.40;7.30;;;18.70;94.50;;;;;;5040455;28;20072;-68
2021/09/05 08:42:54;;;;;;;10.30;6.68;;;18.80;94.40;;;;;;5031613;28;20030;-68
2021/09/05 08:45:20;;;;;;;10.55;6.50;;;18.80;94.30;;;;;;5038806;28;21564;-68
2021/09/05 08:47:45;;;;;;;10.68;6.68;;;18.80;94.30;;;;;;5036189;28;20029;-67
2021/09/05 08:50:12;;;;;;;11.23;7.45;;;18.90;94.00;;;;;;5032586;28;20070;-68
2021/09/05 08:52:38;;;;;;;15.07;7.80;;;18.90;94.20;;;;;;5035347;28;20044;-68
2021/09/05 08:55:05;;;;;;;13.05;7.43;;;19.00;94.30;;;;;;5029861;28;20080;-68
2021/09/05 08:57:31;;;;;;;9.85;6.30;;;19.10;93.80;;;;;;5025541;28;20036;-68
2021/09/05 08:59:56;;;;;;;11.73;7.07;;;19.10;93.70;;;;;;5019259;28;20033;-68
2021/09/05 09:02:22;;;;;;;9.77;6.57;;;19.10;93.70;;;;;;5019616;28;20022;-68
2021/09/05 09:04:50;;;;;;;10.38;6.60;;;19.10;93.60;;;;;;5031940;28;20029;-68
2021/09/05 09:07:16;;;;;;;9.75;5.93;;;19.20;93.60;;;;;;5036780;28;20026;-68
2021/09/05 09:09:59;;;;;;;10.73;6.18;;;19.20;93.60;;;;;;5036215;28;20381;-68
2021/09/05 09:12:39;;;;;;;10.75;7.30;;;19.30;93.90;;;;;;5030350;28;20038;-68
2021/09/05 09:15:30;;;;;;;10.07;6.72;;;19.40;93.50;;;;;;5028724;28;20048;-68
2021/09/05 09:18:02;;;;;;;11.88;6.72;;;19.40;93.20;;;;;;5032484;28;20033;-68
2021/09/05 09:20:36;;;;;;;9.40;6.82;;;19.40;93.00;;;;;;5033810;28;20140;-69
2021/09/05 09:23:11;;;;;;;11.93;6.82;;;19.40;92.90;;;;;;5028261;28;20037;-69
2021/09/05 09:25:37;;;;;;;10.48;7.10;;;19.20;92.90;;;;;;5024820;28;20373;-69
2021/09/05 09:28:21;;;;;;;19.02;9.02;;;19.20;93.10;;;;;;5029969;28;20128;-69
2021/09/05 09:30:47;;;;;;;11.93;7.30;;;19.20;93.30;;;;;;5036418;28;20037;-69
2021/09/05 09:33:20;;;;;;;12.32;7.00;;;19.20;93.00;;;;;;5031626;28;20036;-69
2021/09/05 09:35:47;;;;;;;10.80;7.68;;;19.20;92.90;;;;;;5040070;28;20040;-69
2021/09/05 09:38:16;;;;;;;9.82;7.13;;;19.30;93.10;;;;;;5044438;28;20033;-70
2021/09/05 09:40:42;;;;;;;11.10;7.07;;;19.30;93.00;;;;;;5034126;28;20072;-69
2021/09/05 09:43:19;;;;;;;11.50;7.07;;;19.30;92.80;;;;;;5029267;28;20037;-69
2021/09/05 09:45:44;;;;;;;12.20;7.32;;;19.30;92.80;;;;;;5030017;28;20116;-69
2021/09/05 09:48:10;;;;;;;9.88;5.95;;;19.30;92.50;;;;;;5044627;28;20116;-69
2021/09/05 09:50:42;;;;;;;11.65;6.57;;;19.30;92.80;;;;;;5032181;28;20022;-69
2021/09/05 09:53:09;;;;;;;10.52;6.57;;;19.40;92.50;;;;;;5035375;28;20095;-70
2021/09/05 09:55:39;;;;;;;10.32;6.43;;;19.40;92.70;;;;;;5004501;28;991007;-70
2021/09/05 09:58:05;;;;;;;10.73;7.03;;;19.40;92.50;;;;;;5022647;28;20075;-70
2021/09/05 10:00:31;;;;;;;12.88;7.25;;;19.30;92.30;;;;;;5025823;28;20115;-70
2021/09/05 10:02:58;;;;;;;11.20;7.03;;;19.20;92.30;;;;;;5029835;28;20029;-71
2021/09/05 10:05:25;;;;;;;10.18;6.35;;;19.20;92.40;;;;;;5028127;28;20480;-69
2021/09/05 10:07:52;;;;;;;10.43;6.80;;;19.20;92.60;;;;;;5030765;28;20032;-71
2021/09/05 10:10:19;;;;;;;10.60;7.38;;;19.30;92.60;;;;;;5037749;28;20025;-71
2021/09/05 10:12:44;;;;;;;13.05;7.30;;;19.30;92.60;;;;;;5042600;28;20037;-69
2021/09/05 10:15:10;;;;;;;11.95;7.03;;;19.40;92.80;;;;;;5032995;28;20018;-72
2021/09/05 10:17:38;;;;;;;11.18;7.15;;;19.50;93.00;;;;;;5031467;28;20034;-69
2021/09/05 10:20:04;;;;;;;21.48;8.00;;;19.50;92.70;;;;;;5026303;28;20398;-70
2021/09/05 10:22:31;;;;;;;11.90;6.82;;;19.60;92.70;;;;;;5041486;28;20124;-70
2021/09/05 10:25:00;;;;;;;11.45;7.07;;;19.70;92.80;;;;;;5035817;28;20036;-70
2021/09/05 10:27:37;;;;;;;14.38;7.32;;;19.80;92.30;;;;;;5027729;28;20076;-70
2021/09/05 10:30:09;;;;;;;14.23;7.85;;;19.90;92.10;;;;;;5028352;28;20401;-70
2021/09/05 10:32:52;;;;;;;13.25;7.50;;;19.90;91.80;;;;;;5038228;28;20031;-71
2021/09/05 10:35:46;;;;;;;11.40;7.70;;;20.00;92.10;;;;;;5038014;28;20403;-70
2021/09/05 10:38:15;;;;;;;11.15;7.20;;;20.10;91.80;;;;;;5039322;28;20029;-65
2021/09/05 10:40:52;;;;;;;10.90;7.72;;;20.20;91.60;;;;;;5040335;28;20087;-68
2021/09/05 10:43:18;;;;;;;29.42;7.40;;;20.20;91.90;;;;;;5034531;28;20040;-67
2021/09/05 10:45:50;;;;;;;10.18;7.22;;;20.30;91.70;;;;;;5038257;28;20041;-67
2021/09/05 10:48:37;;;;;;;11.43;7.28;;;20.40;92.10;;;;;;5034393;28;20102;-67
2021/09/05 10:51:21;;;;;;;10.52;6.28;;;20.50;91.90;;;;;;5044499;28;20493;-67
2021/09/05 10:54:07;;;;;;;14.32;7.82;;;20.60;91.60;;;;;;5028125;28;20103;-67
2021/09/05 10:56:44;;;;;;;12.10;7.25;;;20.60;91.90;;;;;;5033152;28;20041;-67
2021/09/05 10:59:12;;;;;;;12.27;7.90;;;20.80;91.40;;;;;;5041434;28;20045;-67
2021/09/05 11:01:41;;;;;;;10.02;6.68;;;20.90;91.40;;;;;;5032775;28;20026;-68
2021/09/05 11:04:15;;;;;;;11.10;6.05;;;21.00;91.00;;;;;;5037354;28;20041;-67
2021/09/05 11:06:43;;;;;;;10.50;5.90;;;21.00;90.60;;;;;;5031081;28;20029;-68
2021/09/05 11:09:24;;;;;;;13.40;7.18;;;21.10;90.70;;;;;;5032563;28;20041;-67
2021/09/05 11:12:25;;;;;;;9.57;6.18;;;21.10;90.50;;;;;;5013445;28;20026;-68
2021/09/05 11:14:51;;;;;;;9.73;6.50;;;21.20;90.60;;;;;;5019135;28;20025;-67
2021/09/05 11:17:28;;;;;;;11.05;6.57;;;21.20;90.40;;;;;;5031050;28;20021;-68
2021/09/05 11:20:01;;;;;;;10.52;6.40;;;21.30;90.50;;;;;;5030866;28;20037;-67
2021/09/05 11:22:36;;;;;;;9.95;6.57;;;21.40;90.70;;;;;;5031249;28;20021;-68
2021/09/05 11:25:10;;;;;;;10.07;6.38;;;21.50;90.50;;;;;;5032038;28;20041;-67
2021/09/05 11:27:50;;;;;;;11.48;6.18;;;21.60;90.30;;;;;;5030960;28;20028;-68
2021/09/05 11:30:17;;;;;;;9.93;6.40;;;21.70;90.40;;;;;;5031703;28;20056;-67
2021/09/05 11:32:42;;;;;;;10.50;6.57;;;21.90;90.20;;;;;;5029495;28;20417;-68
2021/09/05 11:35:10;;;;;;;8.60;6.32;;;22.10;90.40;;;;;;5029207;28;20043;-68
2021/09/05 11:37:39;;;;;;;8.52;5.68;;;22.10;89.40;;;;;;5028653;28;20029;-68
2021/09/05 11:40:09;;;;;;;11.75;6.60;;;22.20;89.00;;;;;;5031332;28;20029;-67
2021/09/05 11:42:35;;;;;;;10.60;6.15;;;22.20;89.00;;;;;;5030462;28;20037;-67
2021/09/05 11:45:04;;;;;;;10.90;7.00;;;22.30;87.90;;;;;;5029218;28;20057;-67
2021/09/05 11:47:29;;;;;;;8.90;6.65;;;22.30;87.40;;;;;;5013839;28;20022;-67
2021/09/05 11:49:57;;;;;;;8.77;6.22;;;22.30;87.50;;;;;;5026622;28;20381;-67
2021/09/05 11:52:29;;;;;;;11.88;6.78;;;22.40;87.60;;;;;;5024704;28;20033;-68
2021/09/05 11:55:06;;;;;;;9.85;6.75;;;22.40;86.60;;;;;;5015135;28;20096;-67
2021/09/05 11:57:34;;;;;;;10.55;6.90;;;22.40;86.90;;;;;;5023671;28;20026;-67
2021/09/05 12:00:05;;;;;;;10.00;6.43;;;22.50;85.70;;;;;;5028971;28;20034;-67
2021/09/05 12:02:36;;;;;;;10.65;6.75;;;22.50;85.60;;;;;;5024796;28;20026;-67
2021/09/05 12:05:04;;;;;;;9.07;5.97;;;22.50;85.00;;;;;;5038088;28;20033;-67
2021/09/05 12:07:35;;;;;;;10.85;6.63;;;22.50;84.70;;;;;;5029674;28;20029;-67
2021/09/05 12:10:05;;;;;;;11.02;6.85;;;22.50;85.00;;;;;;5021555;28;20076;-67
2021/09/05 12:12:31;;;;;;;8.15;5.82;;;22.50;84.90;;;;;;5025967;28;20025;-67
2021/09/05 12:14:57;;;;;;;11.65;7.40;;;22.50;84.50;;;;;;5026098;28;20025;-67
2021/09/05 12:17:28;;;;;;;9.60;6.50;;;22.60;85.80;;;;;;5036212;28;20386;-68
2021/09/05 12:19:53;;;;;;;10.85;6.60;;;22.60;85.00;;;;;;5052030;28;20037;-69
2021/09/05 12:22:19;;;;;;;9.15;6.22;;;22.60;85.70;;;;;;5037582;28;20560;-68
2021/09/05 12:24:54;;;;;;;9.48;6.70;;;22.60;85.30;;;;;;5029442;28;20034;-69
2021/09/05 12:27:19;;;;;;;10.38;7.70;;;22.60;84.70;;;;;;5029870;28;20026;-69
2021/09/05 12:29:45;;;;;;;9.30;6.63;;;22.60;84.70;;;;;;5029226;28;20033;-68
2021/09/05 12:32:14;;;;;;;11.15;6.80;;;22.60;84.50;;;;;;5045762;28;20773;-68
2021/09/05 12:34:47;;;;;;;9.57;6.63;;;22.60;84.30;;;;;;5026254;28;20032;-67
2021/09/05 12:37:18;;;;;;;12.25;7.15;;;22.60;84.10;;;;;;5036092;28;20420;-68